sensor_id;sensor_type;location;lat;lon;timestamp;temperature;humidity
71088;SHT31;58747;50.674;4.616;2022-08-21T00:00:40;15.76;73.25
71088;SHT31;58747;50.674;4.616;2022-08-21T00:03:09;15.70;73.65
71088;SHT31;58747;50.674;4.616;2022-08-21T00:05:39;15.69;74.00
71088;SHT31;58747;50.674;4.616;2022-08-21T00:08:05;15.72;73.89
71088;SHT31;58747;50.674;4.616;2022-08-21T00:10:31;15.69;73.80
71088;SHT31;58747;50.674;4.616;2022-08-21T00:12:57;15.70;73.72
71088;SHT31;58747;50.674;4.616;2022-08-21T00:15:26;15.68;73.68
71088;SHT31;58747;50.674;4.616;2022-08-21T00:17:53;15.63;73.78
71088;SHT31;58747;50.674;4.616;2022-08-21T00:20:19;15.59;73.96
71088;SHT31;58747;50.674;4.616;2022-08-21T00:22:45;15.58;73.96
71088;SHT31;58747;50.674;4.616;2022-08-21T00:25:13;15.57;74.46
71088;SHT31;58747;50.674;4.616;2022-08-21T00:27:39;15.48;75.01
71088;SHT31;58747;50.674;4.616;2022-08-21T00:30:07;15.45;75.04
71088;SHT31;58747;50.674;4.616;2022-08-21T00:32:33;15.38;75.02
71088;SHT31;58747;50.674;4.616;2022-08-21T00:34:58;15.39;75.48
71088;SHT31;58747;50.674;4.616;2022-08-21T00:37:24;15.37;75.17
71088;SHT31;58747;50.674;4.616;2022-08-21T00:39:49;15.32;75.18
71088;SHT31;58747;50.674;4.616;2022-08-21T00:42:15;15.31;75.19
71088;SHT31;58747;50.674;4.616;2022-08-21T00:44:45;15.30;75.11
71088;SHT31;58747;50.674;4.616;2022-08-21T00:47:10;15.30;75.17
71088;SHT31;58747;50.674;4.616;2022-08-21T00:49:37;15.26;75.54
71088;SHT31;58747;50.674;4.616;2022-08-21T00:52:06;15.26;75.60
71088;SHT31;58747;50.674;4.616;2022-08-21T00:54:32;15.21;75.77
71088;SHT31;58747;50.674;4.616;2022-08-21T00:57:07;15.16;75.90
71088;SHT31;58747;50.674;4.616;2022-08-21T00:59:37;15.14;75.83
71088;SHT31;58747;50.674;4.616;2022-08-21T01:02:04;15.17;75.89
71088;SHT31;58747;50.674;4.616;2022-08-21T01:04:32;15.14;75.91
71088;SHT31;58747;50.674;4.616;2022-08-21T01:06:57;15.11;76.04
71088;SHT31;58747;50.674;4.616;2022-08-21T01:09:23;15.08;76.15
71088;SHT31;58747;50.674;4.616;2022-08-21T01:11:49;15.11;75.99
71088;SHT31;58747;50.674;4.616;2022-08-21T01:14:15;15.07;76.23
71088;SHT31;58747;50.674;4.616;2022-08-21T01:16:43;15.06;76.47
71088;SHT31;58747;50.674;4.616;2022-08-21T01:19:09;15.04;76.40
71088;SHT31;58747;50.674;4.616;2022-08-21T01:21:36;15.00;76.47
71088;SHT31;58747;50.674;4.616;2022-08-21T01:24:02;14.93;76.71
71088;SHT31;58747;50.674;4.616;2022-08-21T01:26:30;14.93;76.85
71088;SHT31;58747;50.674;4.616;2022-08-21T01:29:00;14.89;77.05
71088;SHT31;58747;50.674;4.616;2022-08-21T01:31:28;14.86;77.05
71088;SHT31;58747;50.674;4.616;2022-08-21T01:33:54;14.83;77.14
71088;SHT31;58747;50.674;4.616;2022-08-21T01:36:21;14.79;77.28
71088;SHT31;58747;50.674;4.616;2022-08-21T01:38:47;14.75;77.38
71088;SHT31;58747;50.674;4.616;2022-08-21T01:41:13;14.77;77.37
71088;SHT31;58747;50.674;4.616;2022-08-21T01:43:40;14.73;77.57
71088;SHT31;58747;50.674;4.616;2022-08-21T01:46:06;14.68;77.60
71088;SHT31;58747;50.674;4.616;2022-08-21T01:48:31;14.70;77.59
71088;SHT31;58747;50.674;4.616;2022-08-21T01:50:57;14.66;77.67
71088;SHT31;58747;50.674;4.616;2022-08-21T01:53:22;14.68;77.69
71088;SHT31;58747;50.674;4.616;2022-08-21T01:55:48;14.65;77.91
71088;SHT31;58747;50.674;4.616;2022-08-21T01:58:13;14.59;77.74
71088;SHT31;58747;50.674;4.616;2022-08-21T02:00:38;14.59;77.81
71088;SHT31;58747;50.674;4.616;2022-08-21T02:03:04;14.56;77.90
71088;SHT31;58747;50.674;4.616;2022-08-21T02:05:29;14.55;78.14
71088;SHT31;58747;50.674;4.616;2022-08-21T02:07:56;14.53;77.95
71088;SHT31;58747;50.674;4.616;2022-08-21T02:10:28;14.52;78.15
71088;SHT31;58747;50.674;4.616;2022-08-21T02:12:55;14.49;78.08
71088;SHT31;58747;50.674;4.616;2022-08-21T02:15:22;14.48;78.21
71088;SHT31;58747;50.674;4.616;2022-08-21T02:17:51;14.46;78.26
71088;SHT31;58747;50.674;4.616;2022-08-21T02:20:37;14.45;78.23
71088;SHT31;58747;50.674;4.616;2022-08-21T02:23:04;14.39;78.45
71088;SHT31;58747;50.674;4.616;2022-08-21T02:25:30;14.41;78.43
71088;SHT31;58747;50.674;4.616;2022-08-21T02:27:56;14.36;78.51
71088;SHT31;58747;50.674;4.616;2022-08-21T02:30:28;14.33;78.67
71088;SHT31;58747;50.674;4.616;2022-08-21T02:32:54;14.32;78.60
71088;SHT31;58747;50.674;4.616;2022-08-21T02:35:20;14.33;78.63
71088;SHT31;58747;50.674;4.616;2022-08-21T02:37:49;14.35;78.73
71088;SHT31;58747;50.674;4.616;2022-08-21T02:40:17;14.31;78.88
71088;SHT31;58747;50.674;4.616;2022-08-21T02:42:43;14.32;78.82
71088;SHT31;58747;50.674;4.616;2022-08-21T02:45:10;14.25;79.06
71088;SHT31;58747;50.674;4.616;2022-08-21T02:47:36;14.20;79.11
71088;SHT31;58747;50.674;4.616;2022-08-21T02:50:03;14.21;79.16
71088;SHT31;58747;50.674;4.616;2022-08-21T02:52:28;14.15;79.25
71088;SHT31;58747;50.674;4.616;2022-08-21T02:54:54;14.14;79.23
71088;SHT31;58747;50.674;4.616;2022-08-21T02:57:19;14.10;79.33
71088;SHT31;58747;50.674;4.616;2022-08-21T02:59:45;14.11;79.46
71088;SHT31;58747;50.674;4.616;2022-08-21T03:02:10;14.07;79.60
71088;SHT31;58747;50.674;4.616;2022-08-21T03:04:36;14.07;79.64
71088;SHT31;58747;50.674;4.616;2022-08-21T03:07:02;14.02;79.71
71088;SHT31;58747;50.674;4.616;2022-08-21T03:09:27;13.97;79.76
71088;SHT31;58747;50.674;4.616;2022-08-21T03:11:53;14.01;79.73
71088;SHT31;58747;50.674;4.616;2022-08-21T03:14:19;13.97;79.87
71088;SHT31;58747;50.674;4.616;2022-08-21T03:16:44;13.92;80.09
71088;SHT31;58747;50.674;4.616;2022-08-21T03:19:11;13.90;80.08
71088;SHT31;58747;50.674;4.616;2022-08-21T03:21:37;13.85;80.20
71088;SHT31;58747;50.674;4.616;2022-08-21T03:24:03;13.83;80.35
71088;SHT31;58747;50.674;4.616;2022-08-21T03:26:30;13.75;80.69
71088;SHT31;58747;50.674;4.616;2022-08-21T03:28:55;13.73;80.82
71088;SHT31;58747;50.674;4.616;2022-08-21T03:31:22;13.71;80.91
71088;SHT31;58747;50.674;4.616;2022-08-21T03:33:48;13.69;81.10
71088;SHT31;58747;50.674;4.616;2022-08-21T03:36:13;13.66;81.21
71088;SHT31;58747;50.674;4.616;2022-08-21T03:38:39;13.64;81.28
71088;SHT31;58747;50.674;4.616;2022-08-21T03:41:05;13.67;81.46
71088;SHT31;58747;50.674;4.616;2022-08-21T03:43:31;13.67;81.33
71088;SHT31;58747;50.674;4.616;2022-08-21T03:45:58;13.67;81.59
71088;SHT31;58747;50.674;4.616;2022-08-21T03:48:23;13.64;81.63
71088;SHT31;58747;50.674;4.616;2022-08-21T03:50:51;13.63;81.71
71088;SHT31;58747;50.674;4.616;2022-08-21T03:53:17;13.60;82.04
71088;SHT31;58747;50.674;4.616;2022-08-21T03:55:46;13.60;82.18
71088;SHT31;58747;50.674;4.616;2022-08-21T03:58:11;13.64;82.06
71088;SHT31;58747;50.674;4.616;2022-08-21T04:00:37;13.66;81.95
71088;SHT31;58747;50.674;4.616;2022-08-21T04:03:03;13.63;82.03
71088;SHT31;58747;50.674;4.616;2022-08-21T04:05:28;13.57;82.05
71088;SHT31;58747;50.674;4.616;2022-08-21T04:08:01;13.56;82.11
71088;SHT31;58747;50.674;4.616;2022-08-21T04:10:28;13.50;82.21
71088;SHT31;58747;50.674;4.616;2022-08-21T04:12:54;13.50;82.20
71088;SHT31;58747;50.674;4.616;2022-08-21T04:15:22;13.50;82.10
71088;SHT31;58747;50.674;4.616;2022-08-21T04:17:48;13.44;82.32
71088;SHT31;58747;50.674;4.616;2022-08-21T04:20:14;13.39;82.49
71088;SHT31;58747;50.674;4.616;2022-08-21T04:22:40;13.40;82.37
71088;SHT31;58747;50.674;4.616;2022-08-21T04:25:06;13.35;82.56
71088;SHT31;58747;50.674;4.616;2022-08-21T04:27:33;13.33;82.67
71088;SHT31;58747;50.674;4.616;2022-08-21T04:29:58;13.35;82.80
71088;SHT31;58747;50.674;4.616;2022-08-21T04:32:27;13.32;82.97
71088;SHT31;58747;50.674;4.616;2022-08-21T04:35:01;13.26;83.21
71088;SHT31;58747;50.674;4.616;2022-08-21T04:37:26;13.29;83.17
71088;SHT31;58747;50.674;4.616;2022-08-21T04:39:52;13.29;82.97
71088;SHT31;58747;50.674;4.616;2022-08-21T04:42:17;13.27;82.97
71088;SHT31;58747;50.674;4.616;2022-08-21T04:44:43;13.25;82.99
71088;SHT31;58747;50.674;4.616;2022-08-21T04:47:08;13.25;83.02
71088;SHT31;58747;50.674;4.616;2022-08-21T04:49:33;13.26;82.92
71088;SHT31;58747;50.674;4.616;2022-08-21T04:51:59;13.25;83.00
71088;SHT31;58747;50.674;4.616;2022-08-21T04:54:25;13.20;83.28
71088;SHT31;58747;50.674;4.616;2022-08-21T04:56:58;13.20;83.15
71088;SHT31;58747;50.674;4.616;2022-08-21T04:59:32;13.19;83.32
71088;SHT31;58747;50.674;4.616;2022-08-21T05:01:59;13.20;83.42
71088;SHT31;58747;50.674;4.616;2022-08-21T05:04:28;13.20;83.45
71088;SHT31;58747;50.674;4.616;2022-08-21T05:06:57;13.27;83.34
71088;SHT31;58747;50.674;4.616;2022-08-21T05:09:26;13.29;83.28
71088;SHT31;58747;50.674;4.616;2022-08-21T05:11:52;13.26;83.32
71088;SHT31;58747;50.674;4.616;2022-08-21T05:14:19;13.27;83.47
71088;SHT31;58747;50.674;4.616;2022-08-21T05:16:45;13.25;83.53
71088;SHT31;58747;50.674;4.616;2022-08-21T05:19:10;13.23;83.67
71088;SHT31;58747;50.674;4.616;2022-08-21T05:21:39;13.25;83.81
71088;SHT31;58747;50.674;4.616;2022-08-21T05:24:05;13.27;83.74
71088;SHT31;58747;50.674;4.616;2022-08-21T05:26:30;13.30;83.82
71088;SHT31;58747;50.674;4.616;2022-08-21T05:28:56;13.32;83.69
71088;SHT31;58747;50.674;4.616;2022-08-21T05:31:22;13.35;83.65
71088;SHT31;58747;50.674;4.616;2022-08-21T05:33:47;13.39;83.43
71088;SHT31;58747;50.674;4.616;2022-08-21T05:36:13;13.44;83.32
71088;SHT31;58747;50.674;4.616;2022-08-21T05:38:38;13.46;83.21
71088;SHT31;58747;50.674;4.616;2022-08-21T05:41:03;13.49;83.26
71088;SHT31;58747;50.674;4.616;2022-08-21T05:43:29;13.52;83.23
71088;SHT31;58747;50.674;4.616;2022-08-21T05:45:54;13.52;83.32
71088;SHT31;58747;50.674;4.616;2022-08-21T05:48:22;13.59;83.20
71088;SHT31;58747;50.674;4.616;2022-08-21T05:50:49;13.63;83.18
71088;SHT31;58747;50.674;4.616;2022-08-21T05:53:16;13.64;83.15
71088;SHT31;58747;50.674;4.616;2022-08-21T05:55:43;13.69;83.04
71088;SHT31;58747;50.674;4.616;2022-08-21T05:58:08;13.71;82.73
71088;SHT31;58747;50.674;4.616;2022-08-21T06:00:34;13.77;82.59
71088;SHT31;58747;50.674;4.616;2022-08-21T06:02:59;13.78;82.62
71088;SHT31;58747;50.674;4.616;2022-08-21T06:05:25;13.81;82.59
71088;SHT31;58747;50.674;4.616;2022-08-21T06:07:51;13.85;82.58
71088;SHT31;58747;50.674;4.616;2022-08-21T06:10:17;13.92;82.35
71088;SHT31;58747;50.674;4.616;2022-08-21T06:12:42;13.95;82.42
71088;SHT31;58747;50.674;4.616;2022-08-21T06:15:08;14.01;82.03
71088;SHT31;58747;50.674;4.616;2022-08-21T06:17:34;14.07;81.82
71088;SHT31;58747;50.674;4.616;2022-08-21T06:19:59;14.15;81.11
71088;SHT31;58747;50.674;4.616;2022-08-21T06:22:25;14.22;81.00
71088;SHT31;58747;50.674;4.616;2022-08-21T06:24:50;14.24;81.43
71088;SHT31;58747;50.674;4.616;2022-08-21T06:27:16;14.29;81.26
71088;SHT31;58747;50.674;4.616;2022-08-21T06:29:43;14.36;81.23
71088;SHT31;58747;50.674;4.616;2022-08-21T06:32:11;14.52;80.28
71088;SHT31;58747;50.674;4.616;2022-08-21T06:34:37;14.70;80.16
71088;SHT31;58747;50.674;4.616;2022-08-21T06:37:04;14.84;79.86
71088;SHT31;58747;50.674;4.616;2022-08-21T06:39:29;15.04;79.31
71088;SHT31;58747;50.674;4.616;2022-08-21T06:41:55;15.21;78.33
71088;SHT31;58747;50.674;4.616;2022-08-21T06:44:20;15.38;77.66
71088;SHT31;58747;50.674;4.616;2022-08-21T06:46:45;15.48;77.56
71088;SHT31;58747;50.674;4.616;2022-08-21T06:49:11;15.73;77.27
71088;SHT31;58747;50.674;4.616;2022-08-21T06:51:38;15.83;76.27
71088;SHT31;58747;50.674;4.616;2022-08-21T06:54:03;15.87;76.20
71088;SHT31;58747;50.674;4.616;2022-08-21T06:56:28;15.97;75.97
71088;SHT31;58747;50.674;4.616;2022-08-21T06:58:54;16.06;76.06
71088;SHT31;58747;50.674;4.616;2022-08-21T07:01:23;16.17;75.25
71088;SHT31;58747;50.674;4.616;2022-08-21T07:03:49;16.50;75.25
71088;SHT31;58747;50.674;4.616;2022-08-21T07:06:15;16.74;73.82
71088;SHT31;58747;50.674;4.616;2022-08-21T07:08:40;16.78;73.10
71088;SHT31;58747;50.674;4.616;2022-08-21T07:11:24;17.02;72.77
71088;SHT31;58747;50.674;4.616;2022-08-21T07:13:51;16.91;72.81
71088;SHT31;58747;50.674;4.616;2022-08-21T07:16:18;16.98;73.07
71088;SHT31;58747;50.674;4.616;2022-08-21T07:18:44;17.05;73.03
71088;SHT31;58747;50.674;4.616;2022-08-21T07:21:09;17.05;72.64
71088;SHT31;58747;50.674;4.616;2022-08-21T07:23:41;17.11;72.21
71088;SHT31;58747;50.674;4.616;2022-08-21T07:26:07;17.15;72.26
71088;SHT31;58747;50.674;4.616;2022-08-21T07:28:33;17.20;71.53
71088;SHT31;58747;50.674;4.616;2022-08-21T07:31:00;17.40;71.37
71088;SHT31;58747;50.674;4.616;2022-08-21T07:33:28;17.50;70.91
71088;SHT31;58747;50.674;4.616;2022-08-21T07:35:54;17.63;70.34
71088;SHT31;58747;50.674;4.616;2022-08-21T07:38:20;17.69;70.14
71088;SHT31;58747;50.674;4.616;2022-08-21T07:40:47;17.75;70.57
71088;SHT31;58747;50.674;4.616;2022-08-21T07:43:14;17.94;70.23
71088;SHT31;58747;50.674;4.616;2022-08-21T07:45:42;17.97;69.96
71088;SHT31;58747;50.674;4.616;2022-08-21T07:48:07;18.11;69.80
71088;SHT31;58747;50.674;4.616;2022-08-21T07:50:33;18.13;70.04
71088;SHT31;58747;50.674;4.616;2022-08-21T07:52:58;18.18;69.82
71088;SHT31;58747;50.674;4.616;2022-08-21T07:55:23;18.24;70.07
71088;SHT31;58747;50.674;4.616;2022-08-21T07:57:49;18.50;69.09
71088;SHT31;58747;50.674;4.616;2022-08-21T08:00:18;18.74;68.67
71088;SHT31;58747;50.674;4.616;2022-08-21T08:02:46;18.93;68.54
71088;SHT31;58747;50.674;4.616;2022-08-21T08:05:14;19.17;67.77
71088;SHT31;58747;50.674;4.616;2022-08-21T08:07:40;19.24;67.58
71088;SHT31;58747;50.674;4.616;2022-08-21T08:10:07;19.39;66.96
71088;SHT31;58747;50.674;4.616;2022-08-21T08:12:34;19.51;66.70
71088;SHT31;58747;50.674;4.616;2022-08-21T08:15:01;19.35;66.86
71088;SHT31;58747;50.674;4.616;2022-08-21T08:17:26;19.54;66.36
71088;SHT31;58747;50.674;4.616;2022-08-21T08:19:52;19.67;66.62
71088;SHT31;58747;50.674;4.616;2022-08-21T08:22:20;19.79;65.56
71088;SHT31;58747;50.674;4.616;2022-08-21T08:24:47;19.69;65.51
71088;SHT31;58747;50.674;4.616;2022-08-21T08:27:14;19.70;65.28
71088;SHT31;58747;50.674;4.616;2022-08-21T08:29:39;19.83;65.60
71088;SHT31;58747;50.674;4.616;2022-08-21T08:32:05;20.04;65.48
71088;SHT31;58747;50.674;4.616;2022-08-21T08:34:33;20.09;65.05
71088;SHT31;58747;50.674;4.616;2022-08-21T08:36:58;20.03;64.41
71088;SHT31;58747;50.674;4.616;2022-08-21T08:39:24;19.92;63.88
71088;SHT31;58747;50.674;4.616;2022-08-21T08:42:00;20.06;64.38
71088;SHT31;58747;50.674;4.616;2022-08-21T08:44:29;20.03;63.76
71088;SHT31;58747;50.674;4.616;2022-08-21T08:46:55;20.13;63.71
71088;SHT31;58747;50.674;4.616;2022-08-21T08:51:53;20.40;64.42
71088;SHT31;58747;50.674;4.616;2022-08-21T08:55:21;20.56;62.59
71088;SHT31;58747;50.674;4.616;2022-08-21T08:57:20;20.75;62.43
71088;SHT31;58747;50.674;4.616;2022-08-21T08:59:50;20.86;61.79
71088;SHT31;58747;50.674;4.616;2022-08-21T09:02:17;20.79;61.45
71088;SHT31;58747;50.674;4.616;2022-08-21T09:04:44;20.85;62.52
71088;SHT31;58747;50.674;4.616;2022-08-21T09:10:20;20.78;62.19
71088;SHT31;58747;50.674;4.616;2022-08-21T09:12:59;20.71;62.21
71088;SHT31;58747;50.674;4.616;2022-08-21T09:15:36;20.86;61.38
71088;SHT31;58747;50.674;4.616;2022-08-21T09:28:39;21.90;58.15
71088;SHT31;58747;50.674;4.616;2022-08-21T09:31:08;21.75;57.06
71088;SHT31;58747;50.674;4.616;2022-08-21T09:33:36;22.05;56.82
71088;SHT31;58747;50.674;4.616;2022-08-21T09:36:02;22.09;55.91
71088;SHT31;58747;50.674;4.616;2022-08-21T09:38:34;22.12;55.92
71088;SHT31;58747;50.674;4.616;2022-08-21T09:41:09;22.35;57.75
71088;SHT31;58747;50.674;4.616;2022-08-21T09:43:36;22.52;55.11
71088;SHT31;58747;50.674;4.616;2022-08-21T09:46:20;22.80;54.08
71088;SHT31;58747;50.674;4.616;2022-08-21T09:48:48;22.86;55.67
71088;SHT31;58747;50.674;4.616;2022-08-21T09:51:18;22.97;54.26
71088;SHT31;58747;50.674;4.616;2022-08-21T09:53:48;22.78;54.20
71088;SHT31;58747;50.674;4.616;2022-08-21T09:56:29;23.01;53.95
71088;SHT31;58747;50.674;4.616;2022-08-21T09:59:16;22.84;54.20
71088;SHT31;58747;50.674;4.616;2022-08-21T10:01:49;22.67;54.79
71088;SHT31;58747;50.674;4.616;2022-08-21T10:04:20;22.69;56.53
71088;SHT31;58747;50.674;4.616;2022-08-21T10:06:47;22.98;54.88
71088;SHT31;58747;50.674;4.616;2022-08-21T10:09:15;23.17;55.51
71088;SHT31;58747;50.674;4.616;2022-08-21T10:11:48;23.19;52.51
71088;SHT31;58747;50.674;4.616;2022-08-21T10:14:26;23.69;52.08
71088;SHT31;58747;50.674;4.616;2022-08-21T10:19:58;23.67;53.13
71088;SHT31;58747;50.674;4.616;2022-08-21T10:22:43;23.49;52.05
71088;SHT31;58747;50.674;4.616;2022-08-21T10:28:08;23.82;51.33
71088;SHT31;58747;50.674;4.616;2022-08-21T10:33:16;24.38;50.11
71088;SHT31;58747;50.674;4.616;2022-08-21T10:35:54;24.41;50.07
71088;SHT31;58747;50.674;4.616;2022-08-21T10:39:26;23.99;49.78
71088;SHT31;58747;50.674;4.616;2022-08-21T10:47:28;24.41;49.28
71088;SHT31;58747;50.674;4.616;2022-08-21T10:50:09;24.60;49.12
71088;SHT31;58747;50.674;4.616;2022-08-21T10:58:14;25.16;48.16
71088;SHT31;58747;50.674;4.616;2022-08-21T11:03:20;25.51;46.75
71088;SHT31;58747;50.674;4.616;2022-08-21T11:06:05;25.98;45.93
71088;SHT31;58747;50.674;4.616;2022-08-21T11:08:41;25.88;46.21
71088;SHT31;58747;50.674;4.616;2022-08-21T11:11:31;25.33;46.51
71088;SHT31;58747;50.674;4.616;2022-08-21T11:14:04;25.78;45.51
71088;SHT31;58747;50.674;4.616;2022-08-21T11:16:37;26.60;43.79
71088;SHT31;58747;50.674;4.616;2022-08-21T11:19:09;27.14;43.66
71088;SHT31;58747;50.674;4.616;2022-08-21T11:24:15;29.54;38.60
71088;SHT31;58747;50.674;4.616;2022-08-21T11:29:36;28.52;40.23
71088;SHT31;58747;50.674;4.616;2022-08-21T11:43:09;25.19;46.96
71088;SHT31;58747;50.674;4.616;2022-08-21T11:45:44;24.89;48.35
71088;SHT31;58747;50.674;4.616;2022-08-21T11:51:19;24.37;47.99
71088;SHT31;58747;50.674;4.616;2022-08-21T11:53:53;25.24;46.41
71088;SHT31;58747;50.674;4.616;2022-08-21T11:56:31;26.79;42.34
71088;SHT31;58747;50.674;4.616;2022-08-21T11:59:02;28.96;39.57
71088;SHT31;58747;50.674;4.616;2022-08-21T12:01:34;30.06;36.95
71088;SHT31;58747;50.674;4.616;2022-08-21T12:04:06;28.40;39.70
71088;SHT31;58747;50.674;4.616;2022-08-21T12:06:36;28.98;37.97
71088;SHT31;58747;50.674;4.616;2022-08-21T12:09:08;30.59;35.49
71088;SHT31;58747;50.674;4.616;2022-08-21T12:11:48;29.47;37.48
71088;SHT31;58747;50.674;4.616;2022-08-21T12:14:16;28.43;39.15
71088;SHT31;58747;50.674;4.616;2022-08-21T12:16:47;27.08;41.09
71088;SHT31;58747;50.674;4.616;2022-08-21T12:24:37;26.21;43.89
71088;SHT31;58747;50.674;4.616;2022-08-21T12:27:28;26.32;44.77
71088;SHT31;58747;50.674;4.616;2022-08-21T12:30:06;25.80;44.08
71088;SHT31;58747;50.674;4.616;2022-08-21T12:32:46;25.85;43.29
71088;SHT31;58747;50.674;4.616;2022-08-21T12:35:21;25.89;43.71
71088;SHT31;58747;50.674;4.616;2022-08-21T12:37:52;25.84;44.23
71088;SHT31;58747;50.674;4.616;2022-08-21T12:40:25;27.79;38.83
71088;SHT31;58747;50.674;4.616;2022-08-21T12:42:55;29.13;38.05
71088;SHT31;58747;50.674;4.616;2022-08-21T12:50:36;29.00;36.27
71088;SHT31;58747;50.674;4.616;2022-08-21T12:53:10;28.25;37.68
71088;SHT31;58747;50.674;4.616;2022-08-21T12:55:41;27.62;38.53
71088;SHT31;58747;50.674;4.616;2022-08-21T12:58:16;27.42;39.23
71088;SHT31;58747;50.674;4.616;2022-08-21T13:00:48;26.79;40.40
71088;SHT31;58747;50.674;4.616;2022-08-21T13:03:15;27.08;41.34
71088;SHT31;58747;50.674;4.616;2022-08-21T13:05:41;26.66;40.92
71088;SHT31;58747;50.674;4.616;2022-08-21T13:08:09;26.49;41.67
71088;SHT31;58747;50.674;4.616;2022-08-21T13:10:36;26.43;42.50
71088;SHT31;58747;50.674;4.616;2022-08-21T13:13:05;26.26;43.25
71088;SHT31;58747;50.674;4.616;2022-08-21T13:15:34;25.91;44.05
71088;SHT31;58747;50.674;4.616;2022-08-21T13:18:02;25.63;44.64
71088;SHT31;58747;50.674;4.616;2022-08-21T13:20:31;25.51;45.05
71088;SHT31;58747;50.674;4.616;2022-08-21T13:22:57;25.26;45.57
71088;SHT31;58747;50.674;4.616;2022-08-21T13:25:27;25.03;47.46
71088;SHT31;58747;50.674;4.616;2022-08-21T13:28:05;24.99;46.67
71088;SHT31;58747;50.674;4.616;2022-08-21T13:30:31;25.02;46.81
71088;SHT31;58747;50.674;4.616;2022-08-21T13:32:59;25.05;46.20
71088;SHT31;58747;50.674;4.616;2022-08-21T13:35:35;25.19;46.78
71088;SHT31;58747;50.674;4.616;2022-08-21T13:38:01;25.10;44.42
71088;SHT31;58747;50.674;4.616;2022-08-21T13:40:51;24.99;44.38
71088;SHT31;58747;50.674;4.616;2022-08-21T13:43:21;24.85;44.16
71088;SHT31;58747;50.674;4.616;2022-08-21T13:45:52;25.10;45.62
71088;SHT31;58747;50.674;4.616;2022-08-21T13:48:18;25.23;45.46
71088;SHT31;58747;50.674;4.616;2022-08-21T13:50:45;24.99;44.74
71088;SHT31;58747;50.674;4.616;2022-08-21T13:53:44;25.09;44.42
71088;SHT31;58747;50.674;4.616;2022-08-21T13:56:25;25.08;44.66
71088;SHT31;58747;50.674;4.616;2022-08-21T13:58:53;25.26;44.77
71088;SHT31;58747;50.674;4.616;2022-08-21T14:01:31;25.26;43.96
71088;SHT31;58747;50.674;4.616;2022-08-21T14:04:36;25.24;44.78
71088;SHT31;58747;50.674;4.616;2022-08-21T14:07:14;25.24;44.01
71088;SHT31;58747;50.674;4.616;2022-08-21T14:09:41;25.13;43.79
71088;SHT31;58747;50.674;4.616;2022-08-21T14:12:28;25.39;44.63
71088;SHT31;58747;50.674;4.616;2022-08-21T14:14:55;25.29;44.91
71088;SHT31;58747;50.674;4.616;2022-08-21T14:17:47;24.99;44.56
71088;SHT31;58747;50.674;4.616;2022-08-21T14:20:27;25.16;44.66
71088;SHT31;58747;50.674;4.616;2022-08-21T14:22:53;25.27;44.94
71088;SHT31;58747;50.674;4.616;2022-08-21T14:27:56;25.44;43.66
71088;SHT31;58747;50.674;4.616;2022-08-21T14:30:29;25.34;44.37
71088;SHT31;58747;50.674;4.616;2022-08-21T14:32:55;25.36;43.97
71088;SHT31;58747;50.674;4.616;2022-08-21T14:35:21;25.37;45.88
71088;SHT31;58747;50.674;4.616;2022-08-21T14:37:48;25.31;45.39
71088;SHT31;58747;50.674;4.616;2022-08-21T14:40:19;25.16;44.92
71088;SHT31;58747;50.674;4.616;2022-08-21T14:42:45;25.05;44.73
71088;SHT31;58747;50.674;4.616;2022-08-21T14:45:17;25.19;47.10
71088;SHT31;58747;50.674;4.616;2022-08-21T14:47:42;25.12;45.58
71088;SHT31;58747;50.674;4.616;2022-08-21T14:50:10;25.03;44.80
71088;SHT31;58747;50.674;4.616;2022-08-21T14:52:35;25.16;46.23
71088;SHT31;58747;50.674;4.616;2022-08-21T14:55:02;25.26;46.97
71088;SHT31;58747;50.674;4.616;2022-08-21T14:57:30;25.37;46.70
71088;SHT31;58747;50.674;4.616;2022-08-21T14:59:55;25.29;45.45
71088;SHT31;58747;50.674;4.616;2022-08-21T15:02:21;25.12;45.05
71088;SHT31;58747;50.674;4.616;2022-08-21T15:04:46;24.89;46.52
71088;SHT31;58747;50.674;4.616;2022-08-21T15:07:11;24.73;46.87
71088;SHT31;58747;50.674;4.616;2022-08-21T15:09:37;24.71;47.40
71088;SHT31;58747;50.674;4.616;2022-08-21T15:12:03;24.67;46.89
71088;SHT31;58747;50.674;4.616;2022-08-21T15:14:30;24.83;46.57
71088;SHT31;58747;50.674;4.616;2022-08-21T15:16:57;24.67;46.13
71088;SHT31;58747;50.674;4.616;2022-08-21T15:19:23;24.79;47.13
71088;SHT31;58747;50.674;4.616;2022-08-21T15:21:48;24.85;45.99
71088;SHT31;58747;50.674;4.616;2022-08-21T15:24:14;24.93;46.69
71088;SHT31;58747;50.674;4.616;2022-08-21T15:26:40;24.95;46.20
71088;SHT31;58747;50.674;4.616;2022-08-21T15:29:07;24.91;47.50
71088;SHT31;58747;50.674;4.616;2022-08-21T15:31:33;24.85;46.07
71088;SHT31;58747;50.674;4.616;2022-08-21T15:33:59;24.75;46.09
71088;SHT31;58747;50.674;4.616;2022-08-21T15:36:24;24.71;46.07
71088;SHT31;58747;50.674;4.616;2022-08-21T15:38:49;24.82;47.94
71088;SHT31;58747;50.674;4.616;2022-08-21T15:41:15;24.88;47.04
71088;SHT31;58747;50.674;4.616;2022-08-21T15:43:44;24.76;47.05
71088;SHT31;58747;50.674;4.616;2022-08-21T15:46:13;24.72;46.47
71088;SHT31;58747;50.674;4.616;2022-08-21T15:48:39;24.60;46.56
71088;SHT31;58747;50.674;4.616;2022-08-21T15:51:05;24.67;46.81
71088;SHT31;58747;50.674;4.616;2022-08-21T15:53:30;24.69;46.65
71088;SHT31;58747;50.674;4.616;2022-08-21T15:56:01;24.55;45.60
71088;SHT31;58747;50.674;4.616;2022-08-21T15:58:27;24.38;45.62
71088;SHT31;58747;50.674;4.616;2022-08-21T16:00:52;24.33;47.24
71088;SHT31;58747;50.674;4.616;2022-08-21T16:03:18;24.45;48.72
71088;SHT31;58747;50.674;4.616;2022-08-21T16:05:47;24.37;47.42
71088;SHT31;58747;50.674;4.616;2022-08-21T16:08:14;24.44;48.81
71088;SHT31;58747;50.674;4.616;2022-08-21T16:10:40;24.38;47.44
71088;SHT31;58747;50.674;4.616;2022-08-21T16:13:09;24.25;46.26
71088;SHT31;58747;50.674;4.616;2022-08-21T16:15:36;24.31;48.43
71088;SHT31;58747;50.674;4.616;2022-08-21T16:18:02;24.33;47.91
71088;SHT31;58747;50.674;4.616;2022-08-21T16:20:28;24.34;48.90
71088;SHT31;58747;50.674;4.616;2022-08-21T16:22:55;24.31;48.97
71088;SHT31;58747;50.674;4.616;2022-08-21T16:25:21;24.24;49.08
71088;SHT31;58747;50.674;4.616;2022-08-21T16:27:49;24.17;47.93
71088;SHT31;58747;50.674;4.616;2022-08-21T16:30:17;24.13;47.77
71088;SHT31;58747;50.674;4.616;2022-08-21T16:32:44;24.13;46.51
71088;SHT31;58747;50.674;4.616;2022-08-21T16:35:12;24.14;49.65
71088;SHT31;58747;50.674;4.616;2022-08-21T16:37:38;23.90;47.56
71088;SHT31;58747;50.674;4.616;2022-08-21T16:40:04;24.04;49.56
71088;SHT31;58747;50.674;4.616;2022-08-21T16:42:31;24.06;49.28
71088;SHT31;58747;50.674;4.616;2022-08-21T16:44:56;23.92;49.25
71088;SHT31;58747;50.674;4.616;2022-08-21T16:47:22;23.97;50.56
71088;SHT31;58747;50.674;4.616;2022-08-21T16:49:48;23.97;50.39